sensor_id;sensor_type;location;lat;lon;timestamp;temperature;humidity
2955;DHT22;1487;51.470;6.938;2022-12-13T00:00:43;-3.50;99.90
2955;DHT22;1487;51.470;6.938;2022-12-13T00:03:10;-3.50;99.90
2955;DHT22;1487;51.470;6.938;2022-12-13T00:05:42;-3.60;99.90
2955;DHT22;1487;51.470;6.938;2022-12-13T00:08:09;-3.60;99.90
2955;DHT22;1487;51.470;6.938;2022-12-13T00:10:36;-3.60;99.90
2955;DHT22;1487;51.470;6.938;2022-12-13T00:13:03;-3.60;99.90
2955;DHT22;1487;51.470;6.938;2022-12-13T00:15:31;-3.70;99.90
2955;DHT22;1487;51.470;6.938;2022-12-13T00:17:58;-3.60;99.90
2955;DHT22;1487;51.470;6.938;2022-12-13T00:20:25;-3.60;99.90
2955;DHT22;1487;51.470;6.938;2022-12-13T00:22:52;-3.60;99.90
2955;DHT22;1487;51.470;6.938;2022-12-13T00:25:18;-3.70;99.90
2955;DHT22;1487;51.470;6.938;2022-12-13T00:27:45;-3.70;99.90
2955;DHT22;1487;51.470;6.938;2022-12-13T00:30:13;-3.60;99.90
2955;DHT22;1487;51.470;6.938;2022-12-13T00:32:41;-3.70;99.90
2955;DHT22;1487;51.470;6.938;2022-12-13T00:35:08;-3.70;99.90
2955;DHT22;1487;51.470;6.938;2022-12-13T00:37:35;-3.70;99.90
2955;DHT22;1487;51.470;6.938;2022-12-13T00:40:02;-3.80;99.90
2955;DHT22;1487;51.470;6.938;2022-12-13T00:42:29;-3.80;99.90
2955;DHT22;1487;51.470;6.938;2022-12-13T00:44:55;-3.90;99.90
2955;DHT22;1487;51.470;6.938;2022-12-13T00:47:22;-3.90;99.90
2955;DHT22;1487;51.470;6.938;2022-12-13T00:49:50;-3.90;99.90
2955;DHT22;1487;51.470;6.938;2022-12-13T00:52:17;-3.80;99.90
2955;DHT22;1487;51.470;6.938;2022-12-13T00:54:44;-3.80;99.90
2955;DHT22;1487;51.470;6.938;2022-12-13T00:57:11;-3.80;99.90
2955;DHT22;1487;51.470;6.938;2022-12-13T00:59:38;-3.90;99.90
2955;DHT22;1487;51.470;6.938;2022-12-13T01:02:04;-3.90;99.90
2955;DHT22;1487;51.470;6.938;2022-12-13T01:04:31;-4.00;99.90
2955;DHT22;1487;51.470;6.938;2022-12-13T01:06:59;-4.00;99.90
2955;DHT22;1487;51.470;6.938;2022-12-13T01:09:27;-3.90;99.90
2955;DHT22;1487;51.470;6.938;2022-12-13T01:11:56;-3.90;99.90
2955;DHT22;1487;51.470;6.938;2022-12-13T01:14:23;-4.00;99.90
2955;DHT22;1487;51.470;6.938;2022-12-13T01:16:51;-4.00;99.90
2955;DHT22;1487;51.470;6.938;2022-12-13T01:19:20;-4.00;99.90
2955;DHT22;1487;51.470;6.938;2022-12-13T01:21:47;-4.10;99.90
2955;DHT22;1487;51.470;6.938;2022-12-13T01:24:15;-4.10;99.90
2955;DHT22;1487;51.470;6.938;2022-12-13T01:26:45;-4.10;99.90
2955;DHT22;1487;51.470;6.938;2022-12-13T01:29:12;-4.10;99.90
2955;DHT22;1487;51.470;6.938;2022-12-13T01:31:39;-4.10;99.90
2955;DHT22;1487;51.470;6.938;2022-12-13T01:34:06;-4.10;99.90
2955;DHT22;1487;51.470;6.938;2022-12-13T01:36:38;-4.10;99.90
2955;DHT22;1487;51.470;6.938;2022-12-13T01:39:06;-4.20;99.90
2955;DHT22;1487;51.470;6.938;2022-12-13T01:41:35;-4.10;99.90
2955;DHT22;1487;51.470;6.938;2022-12-13T01:44:03;-4.10;99.90
2955;DHT22;1487;51.470;6.938;2022-12-13T01:46:31;-4.20;99.90
2955;DHT22;1487;51.470;6.938;2022-12-13T01:49:02;-4.20;99.90
2955;DHT22;1487;51.470;6.938;2022-12-13T01:51:34;-4.20;99.90
2955;DHT22;1487;51.470;6.938;2022-12-13T01:54:05;-4.10;99.90
2955;DHT22;1487;51.470;6.938;2022-12-13T01:56:37;-4.10;99.90
2955;DHT22;1487;51.470;6.938;2022-12-13T01:59:07;-4.10;99.90
2955;DHT22;1487;51.470;6.938;2022-12-13T02:01:36;-4.00;99.90
2955;DHT22;1487;51.470;6.938;2022-12-13T02:04:04;-4.00;99.90
2955;DHT22;1487;51.470;6.938;2022-12-13T02:06:34;-4.10;99.90
2955;DHT22;1487;51.470;6.938;2022-12-13T02:09:03;-4.10;99.90
2955;DHT22;1487;51.470;6.938;2022-12-13T02:11:30;-4.10;99.90
2955;DHT22;1487;51.470;6.938;2022-12-13T02:13:59;-4.10;99.90
2955;DHT22;1487;51.470;6.938;2022-12-13T02:16:37;-4.20;99.90
2955;DHT22;1487;51.470;6.938;2022-12-13T02:22:18;-4.30;99.90
2955;DHT22;1487;51.470;6.938;2022-12-13T02:25:04;-4.20;99.90
2955;DHT22;1487;51.470;6.938;2022-12-13T02:27:45;-4.20;99.90
2955;DHT22;1487;51.470;6.938;2022-12-13T02:30:22;-4.20;99.90
2955;DHT22;1487;51.470;6.938;2022-12-13T02:33:06;-4.20;99.90
2955;DHT22;1487;51.470;6.938;2022-12-13T02:35:41;-4.20;99.90
2955;DHT22;1487;51.470;6.938;2022-12-13T02:38:11;-4.20;99.90
2955;DHT22;1487;51.470;6.938;2022-12-13T02:40:43;-4.10;99.90
2955;DHT22;1487;51.470;6.938;2022-12-13T02:43:13;-4.10;99.90
2955;DHT22;1487;51.470;6.938;2022-12-13T02:45:46;-4.10;99.90
2955;DHT22;1487;51.470;6.938;2022-12-13T02:48:16;-4.10;99.90
2955;DHT22;1487;51.470;6.938;2022-12-13T02:50:45;-4.20;99.90
2955;DHT22;1487;51.470;6.938;2022-12-13T02:53:12;-4.20;99.90
2955;DHT22;1487;51.470;6.938;2022-12-13T02:55:39;-4.20;99.90
2955;DHT22;1487;51.470;6.938;2022-12-13T02:58:10;-4.30;99.90
2955;DHT22;1487;51.470;6.938;2022-12-13T03:00:46;-4.30;99.90
2955;DHT22;1487;51.470;6.938;2022-12-13T03:03:24;-4.40;99.90
2955;DHT22;1487;51.470;6.938;2022-12-13T03:05:59;-4.40;99.90
2955;DHT22;1487;51.470;6.938;2022-12-13T03:08:52;-4.40;99.90
2955;DHT22;1487;51.470;6.938;2022-12-13T03:11:24;-4.40;99.90
2955;DHT22;1487;51.470;6.938;2022-12-13T03:14:10;-4.50;99.90
2955;DHT22;1487;51.470;6.938;2022-12-13T03:16:42;-4.50;99.90
2955;DHT22;1487;51.470;6.938;2022-12-13T03:19:10;-4.50;99.90
2955;DHT22;1487;51.470;6.938;2022-12-13T03:21:40;-4.50;99.90
2955;DHT22;1487;51.470;6.938;2022-12-13T03:24:07;-4.50;99.90
2955;DHT22;1487;51.470;6.938;2022-12-13T03:26:36;-4.50;99.90
2955;DHT22;1487;51.470;6.938;2022-12-13T03:29:04;-4.60;99.90
2955;DHT22;1487;51.470;6.938;2022-12-13T03:31:31;-4.50;99.90
2955;DHT22;1487;51.470;6.938;2022-12-13T03:34:00;-4.50;99.90
2955;DHT22;1487;51.470;6.938;2022-12-13T03:36:27;-4.60;99.90
2955;DHT22;1487;51.470;6.938;2022-12-13T03:38:54;-4.50;99.90
2955;DHT22;1487;51.470;6.938;2022-12-13T03:41:23;-4.40;99.90
2955;DHT22;1487;51.470;6.938;2022-12-13T03:43:55;-4.30;99.90
2955;DHT22;1487;51.470;6.938;2022-12-13T03:46:22;-4.30;99.90
2955;DHT22;1487;51.470;6.938;2022-12-13T03:48:49;-4.30;99.90
2955;DHT22;1487;51.470;6.938;2022-12-13T03:51:17;-4.30;99.90
2955;DHT22;1487;51.470;6.938;2022-12-13T03:53:44;-4.40;99.90
2955;DHT22;1487;51.470;6.938;2022-12-13T03:56:11;-4.40;99.90
2955;DHT22;1487;51.470;6.938;2022-12-13T03:58:38;-4.50;99.90
2955;DHT22;1487;51.470;6.938;2022-12-13T04:01:08;-4.50;99.90
2955;DHT22;1487;51.470;6.938;2022-12-13T04:03:37;-4.60;99.90
2955;DHT22;1487;51.470;6.938;2022-12-13T04:06:04;-4.60;99.90
2955;DHT22;1487;51.470;6.938;2022-12-13T04:08:34;-4.70;99.90
2955;DHT22;1487;51.470;6.938;2022-12-13T04:11:02;-4.70;99.90
2955;DHT22;1487;51.470;6.938;2022-12-13T04:13:50;-4.70;99.90
2955;DHT22;1487;51.470;6.938;2022-12-13T04:16:16;-4.70;99.90
2955;DHT22;1487;51.470;6.938;2022-12-13T04:18:42;-4.80;99.90
2955;DHT22;1487;51.470;6.938;2022-12-13T04:21:09;-4.80;99.90
2955;DHT22;1487;51.470;6.938;2022-12-13T04:23:38;-4.80;99.90
2955;DHT22;1487;51.470;6.938;2022-12-13T04:26:05;-4.70;99.90
2955;DHT22;1487;51.470;6.938;2022-12-13T04:28:31;-4.80;99.90
2955;DHT22;1487;51.470;6.938;2022-12-13T04:30:58;-4.80;99.90
2955;DHT22;1487;51.470;6.938;2022-12-13T04:33:25;-4.80;99.90
2955;DHT22;1487;51.470;6.938;2022-12-13T04:35:52;-4.80;99.90
2955;DHT22;1487;51.470;6.938;2022-12-13T04:38:19;-4.80;99.90
2955;DHT22;1487;51.470;6.938;2022-12-13T04:40:47;-4.80;99.90
2955;DHT22;1487;51.470;6.938;2022-12-13T04:43:14;-4.70;99.90
2955;DHT22;1487;51.470;6.938;2022-12-13T04:45:41;-4.80;99.90
2955;DHT22;1487;51.470;6.938;2022-12-13T04:48:07;-4.80;99.90
2955;DHT22;1487;51.470;6.938;2022-12-13T04:50:34;-4.80;99.90
2955;DHT22;1487;51.470;6.938;2022-12-13T04:53:01;-4.80;99.90
2955;DHT22;1487;51.470;6.938;2022-12-13T04:55:28;-4.80;99.90
2955;DHT22;1487;51.470;6.938;2022-12-13T04:57:56;-4.90;99.90
2955;DHT22;1487;51.470;6.938;2022-12-13T05:00:23;-4.90;99.90
2955;DHT22;1487;51.470;6.938;2022-12-13T05:02:50;-5.00;99.90
2955;DHT22;1487;51.470;6.938;2022-12-13T05:05:17;-5.00;99.90
2955;DHT22;1487;51.470;6.938;2022-12-13T05:07:44;-5.00;99.90
2955;DHT22;1487;51.470;6.938;2022-12-13T05:10:11;-5.00;99.90
2955;DHT22;1487;51.470;6.938;2022-12-13T05:12:38;-5.00;99.90
2955;DHT22;1487;51.470;6.938;2022-12-13T05:15:07;-5.00;99.90
2955;DHT22;1487;51.470;6.938;2022-12-13T05:17:34;-5.00;99.90
2955;DHT22;1487;51.470;6.938;2022-12-13T05:20:01;-5.10;99.90
2955;DHT22;1487;51.470;6.938;2022-12-13T05:22:28;-5.10;99.90
2955;DHT22;1487;51.470;6.938;2022-12-13T05:24:55;-5.10;99.90
2955;DHT22;1487;51.470;6.938;2022-12-13T05:27:21;-5.00;99.90
2955;DHT22;1487;51.470;6.938;2022-12-13T05:29:48;-5.10;99.90
2955;DHT22;1487;51.470;6.938;2022-12-13T05:32:16;-5.10;99.90
2955;DHT22;1487;51.470;6.938;2022-12-13T05:34:43;-5.00;99.90
2955;DHT22;1487;51.470;6.938;2022-12-13T05:37:10;-5.00;99.90
2955;DHT22;1487;51.470;6.938;2022-12-13T05:39:37;-5.00;99.90
2955;DHT22;1487;51.470;6.938;2022-12-13T05:42:04;-5.00;99.90
2955;DHT22;1487;51.470;6.938;2022-12-13T05:44:31;-4.90;99.90
2955;DHT22;1487;51.470;6.938;2022-12-13T05:46:58;-5.00;99.90
2955;DHT22;1487;51.470;6.938;2022-12-13T05:49:27;-5.00;99.90
2955;DHT22;1487;51.470;6.938;2022-12-13T05:51:54;-5.00;99.90
2955;DHT22;1487;51.470;6.938;2022-12-13T05:54:20;-5.00;99.90
2955;DHT22;1487;51.470;6.938;2022-12-13T05:56:47;-5.10;99.90
2955;DHT22;1487;51.470;6.938;2022-12-13T05:59:14;-5.10;99.90
2955;DHT22;1487;51.470;6.938;2022-12-13T06:01:41;-5.10;99.90
2955;DHT22;1487;51.470;6.938;2022-12-13T06:04:08;-5.10;99.90
2955;DHT22;1487;51.470;6.938;2022-12-13T06:06:36;-5.20;99.90
2955;DHT22;1487;51.470;6.938;2022-12-13T06:09:03;-5.20;99.90
2955;DHT22;1487;51.470;6.938;2022-12-13T06:11:29;-5.30;99.90
2955;DHT22;1487;51.470;6.938;2022-12-13T06:13:56;-5.20;99.90
2955;DHT22;1487;51.470;6.938;2022-12-13T06:16:23;-5.20;99.90
2955;DHT22;1487;51.470;6.938;2022-12-13T06:18:51;-5.30;99.90
2955;DHT22;1487;51.470;6.938;2022-12-13T06:21:18;-5.20;99.90
2955;DHT22;1487;51.470;6.938;2022-12-13T06:23:46;-5.10;99.90
2955;DHT22;1487;51.470;6.938;2022-12-13T06:26:13;-5.00;99.90
2955;DHT22;1487;51.470;6.938;2022-12-13T06:28:40;-5.00;99.90
2955;DHT22;1487;51.470;6.938;2022-12-13T06:31:07;-5.00;99.90
2955;DHT22;1487;51.470;6.938;2022-12-13T06:33:34;-5.10;99.90
2955;DHT22;1487;51.470;6.938;2022-12-13T06:36:01;-5.10;99.90
2955;DHT22;1487;51.470;6.938;2022-12-13T06:38:29;-5.10;99.90
2955;DHT22;1487;51.470;6.938;2022-12-13T06:41:07;-5.10;99.90
2955;DHT22;1487;51.470;6.938;2022-12-13T06:43:34;-5.10;99.90
2955;DHT22;1487;51.470;6.938;2022-12-13T06:46:02;-5.20;99.90
2955;DHT22;1487;51.470;6.938;2022-12-13T06:48:29;-5.10;99.90
2955;DHT22;1487;51.470;6.938;2022-12-13T06:50:59;-5.10;99.90
2955;DHT22;1487;51.470;6.938;2022-12-13T06:53:26;-5.10;99.90
2955;DHT22;1487;51.470;6.938;2022-12-13T06:55:53;-5.10;99.90
2955;DHT22;1487;51.470;6.938;2022-12-13T06:58:21;-5.00;99.90
2955;DHT22;1487;51.470;6.938;2022-12-13T07:00:48;-5.00;99.90
2955;DHT22;1487;51.470;6.938;2022-12-13T07:03:15;-5.00;99.90
2955;DHT22;1487;51.470;6.938;2022-12-13T07:05:42;-5.00;99.90
2955;DHT22;1487;51.470;6.938;2022-12-13T07:08:09;-5.10;99.90
2955;DHT22;1487;51.470;6.938;2022-12-13T07:10:38;-5.00;99.90
2955;DHT22;1487;51.470;6.938;2022-12-13T07:13:05;-5.00;99.90
2955;DHT22;1487;51.470;6.938;2022-12-13T07:15:34;-5.10;99.90
2955;DHT22;1487;51.470;6.938;2022-12-13T07:18:00;-5.20;99.90
2955;DHT22;1487;51.470;6.938;2022-12-13T07:20:27;-5.10;99.90
2955;DHT22;1487;51.470;6.938;2022-12-13T07:22:54;-5.20;99.90
2955;DHT22;1487;51.470;6.938;2022-12-13T07:25:21;-5.10;99.90
2955;DHT22;1487;51.470;6.938;2022-12-13T07:27:55;-5.20;99.90
2955;DHT22;1487;51.470;6.938;2022-12-13T07:30:22;-5.20;99.90
2955;DHT22;1487;51.470;6.938;2022-12-13T07:32:50;-5.20;99.90
2955;DHT22;1487;51.470;6.938;2022-12-13T07:35:17;-5.20;99.90
2955;DHT22;1487;51.470;6.938;2022-12-13T07:37:44;-5.10;99.90
2955;DHT22;1487;51.470;6.938;2022-12-13T07:40:11;-5.10;99.90
2955;DHT22;1487;51.470;6.938;2022-12-13T07:42:38;-5.10;99.90
2955;DHT22;1487;51.470;6.938;2022-12-13T07:45:05;-5.10;99.90
2955;DHT22;1487;51.470;6.938;2022-12-13T07:47:32;-5.10;99.90
2955;DHT22;1487;51.470;6.938;2022-12-13T07:50:01;-5.10;99.90
2955;DHT22;1487;51.470;6.938;2022-12-13T07:52:27;-5.10;99.90
2955;DHT22;1487;51.470;6.938;2022-12-13T07:54:54;-5.10;99.90
2955;DHT22;1487;51.470;6.938;2022-12-13T07:57:21;-5.10;99.90
2955;DHT22;1487;51.470;6.938;2022-12-13T07:59:48;-5.00;99.90
2955;DHT22;1487;51.470;6.938;2022-12-13T08:02:15;-5.00;99.90
2955;DHT22;1487;51.470;6.938;2022-12-13T08:04:42;-5.00;99.90
2955;DHT22;1487;51.470;6.938;2022-12-13T08:07:10;-4.90;99.90
2955;DHT22;1487;51.470;6.938;2022-12-13T08:09:37;-4.80;99.90
2955;DHT22;1487;51.470;6.938;2022-12-13T08:12:04;-4.60;99.90
2955;DHT22;1487;51.470;6.938;2022-12-13T08:14:31;-4.20;99.90
2955;DHT22;1487;51.470;6.938;2022-12-13T08:16:58;-3.90;99.90
2955;DHT22;1487;51.470;6.938;2022-12-13T08:19:25;-3.60;99.90
2955;DHT22;1487;51.470;6.938;2022-12-13T08:21:52;-3.40;99.90
2955;DHT22;1487;51.470;6.938;2022-12-13T08:24:22;-3.10;99.90
2955;DHT22;1487;51.470;6.938;2022-12-13T08:26:49;-2.70;99.90
2955;DHT22;1487;51.470;6.938;2022-12-13T08:29:16;-2.40;99.90
2955;DHT22;1487;51.470;6.938;2022-12-13T08:31:43;-2.30;99.90
2955;DHT22;1487;51.470;6.938;2022-12-13T08:34:10;-2.30;99.90
2955;DHT22;1487;51.470;6.938;2022-12-13T08:36:37;-2.30;99.90
2955;DHT22;1487;51.470;6.938;2022-12-13T08:39:04;-2.30;99.90
2955;DHT22;1487;51.470;6.938;2022-12-13T08:41:32;-2.30;99.90
2955;DHT22;1487;51.470;6.938;2022-12-13T08:43:59;-2.20;99.90
2955;DHT22;1487;51.470;6.938;2022-12-13T08:46:25;-1.90;99.90
2955;DHT22;1487;51.470;6.938;2022-12-13T08:48:52;-1.60;99.90
2955;DHT22;1487;51.470;6.938;2022-12-13T08:51:19;-1.00;99.90
2955;DHT22;1487;51.470;6.938;2022-12-13T08:53:48;-0.50;99.90
2955;DHT22;1487;51.470;6.938;2022-12-13T08:56:16;0.10;99.90
2955;DHT22;1487;51.470;6.938;2022-12-13T08:58:48;0.60;99.90
2955;DHT22;1487;51.470;6.938;2022-12-13T09:01:16;1.10;99.90
2955;DHT22;1487;51.470;6.938;2022-12-13T09:03:43;1.40;99.90
2955;DHT22;1487;51.470;6.938;2022-12-13T09:06:13;1.80;99.90
2955;DHT22;1487;51.470;6.938;2022-12-13T09:08:41;2.20;99.90
2955;DHT22;1487;51.470;6.938;2022-12-13T09:11:09;2.40;99.90
2955;DHT22;1487;51.470;6.938;2022-12-13T09:13:37;3.00;99.90
2955;DHT22;1487;51.470;6.938;2022-12-13T09:16:07;3.40;99.90
2955;DHT22;1487;51.470;6.938;2022-12-13T09:18:34;4.00;99.90
2955;DHT22;1487;51.470;6.938;2022-12-13T09:21:05;4.40;99.90
2955;DHT22;1487;51.470;6.938;2022-12-13T09:23:32;4.40;99.90
2955;DHT22;1487;51.470;6.938;2022-12-13T09:26:02;4.70;99.90
2955;DHT22;1487;51.470;6.938;2022-12-13T09:28:29;5.10;99.90
2955;DHT22;1487;51.470;6.938;2022-12-13T09:30:56;5.20;99.90
2955;DHT22;1487;51.470;6.938;2022-12-13T09:33:25;5.30;99.90
2955;DHT22;1487;51.470;6.938;2022-12-13T09:35:52;5.30;99.90
2955;DHT22;1487;51.470;6.938;2022-12-13T09:38:19;6.10;99.90
2955;DHT22;1487;51.470;6.938;2022-12-13T09:40:47;6.20;99.90
2955;DHT22;1487;51.470;6.938;2022-12-13T09:43:20;6.00;99.90
2955;DHT22;1487;51.470;6.938;2022-12-13T09:45:49;5.50;99.90
2955;DHT22;1487;51.470;6.938;2022-12-13T09:48:18;4.90;99.90
2955;DHT22;1487;51.470;6.938;2022-12-13T09:50:47;4.40;99.90
2955;DHT22;1487;51.470;6.938;2022-12-13T09:53:16;4.20;99.90
2955;DHT22;1487;51.470;6.938;2022-12-13T09:55:46;4.20;99.90
2955;DHT22;1487;51.470;6.938;2022-12-13T09:58:17;4.50;99.90
2955;DHT22;1487;51.470;6.938;2022-12-13T10:00:47;5.10;99.90
2955;DHT22;1487;51.470;6.938;2022-12-13T10:03:15;5.50;99.90
2955;DHT22;1487;51.470;6.938;2022-12-13T10:05:54;5.50;99.90
2955;DHT22;1487;51.470;6.938;2022-12-13T10:08:23;5.20;99.90
2955;DHT22;1487;51.470;6.938;2022-12-13T10:10:51;5.10;99.90
2955;DHT22;1487;51.470;6.938;2022-12-13T10:13:21;5.20;99.90
2955;DHT22;1487;51.470;6.938;2022-12-13T10:15:55;5.20;99.90
2955;DHT22;1487;51.470;6.938;2022-12-13T10:18:30;5.00;99.90
2955;DHT22;1487;51.470;6.938;2022-12-13T10:21:01;4.80;99.90
2955;DHT22;1487;51.470;6.938;2022-12-13T10:23:29;4.40;99.90
2955;DHT22;1487;51.470;6.938;2022-12-13T10:25:56;4.10;99.90
2955;DHT22;1487;51.470;6.938;2022-12-13T10:28:26;4.00;99.90
2955;DHT22;1487;51.470;6.938;2022-12-13T10:30:54;3.90;99.90
2955;DHT22;1487;51.470;6.938;2022-12-13T10:33:25;4.00;99.90
2955;DHT22;1487;51.470;6.938;2022-12-13T10:36:12;4.20;99.90
2955;DHT22;1487;51.470;6.938;2022-12-13T10:38:42;4.30;99.90
2955;DHT22;1487;51.470;6.938;2022-12-13T10:41:31;4.10;99.90
2955;DHT22;1487;51.470;6.938;2022-12-13T10:44:15;4.20;99.90
2955;DHT22;1487;51.470;6.938;2022-12-13T10:46:48;4.30;99.90
2955;DHT22;1487;51.470;6.938;2022-12-13T10:49:17;4.30;99.90
2955;DHT22;1487;51.470;6.938;2022-12-13T10:51:47;4.20;99.90
2955;DHT22;1487;51.470;6.938;2022-12-13T10:54:18;4.10;99.90
2955;DHT22;1487;51.470;6.938;2022-12-13T10:56:50;4.00;99.90
2955;DHT22;1487;51.470;6.938;2022-12-13T10:59:31;3.90;99.90
2955;DHT22;1487;51.470;6.938;2022-12-13T11:01:59;3.80;99.90
2955;DHT22;1487;51.470;6.938;2022-12-13T11:04:29;3.60;99.90
2955;DHT22;1487;51.470;6.938;2022-12-13T11:06:59;3.50;99.90
2955;DHT22;1487;51.470;6.938;2022-12-13T11:09:29;3.60;99.90
2955;DHT22;1487;51.470;6.938;2022-12-13T11:11:57;3.60;99.90
2955;DHT22;1487;51.470;6.938;2022-12-13T11:14:28;3.50;99.90
2955;DHT22;1487;51.470;6.938;2022-12-13T11:16:58;3.50;99.90
2955;DHT22;1487;51.470;6.938;2022-12-13T11:19:34;3.40;99.90
2955;DHT22;1487;51.470;6.938;2022-12-13T11:22:04;3.40;99.90
2955;DHT22;1487;51.470;6.938;2022-12-13T11:24:34;3.20;99.90
2955;DHT22;1487;51.470;6.938;2022-12-13T11:27:07;3.30;99.90
2955;DHT22;1487;51.470;6.938;2022-12-13T11:29:50;3.30;99.90
2955;DHT22;1487;51.470;6.938;2022-12-13T11:32:29;3.50;99.90
2955;DHT22;1487;51.470;6.938;2022-12-13T11:35:02;3.70;99.90
2955;DHT22;1487;51.470;6.938;2022-12-13T11:37:38;3.70;99.90
2955;DHT22;1487;51.470;6.938;2022-12-13T11:40:12;3.60;99.90
2955;DHT22;1487;51.470;6.938;2022-12-13T11:42:43;3.30;99.90
2955;DHT22;1487;51.470;6.938;2022-12-13T11:45:13;3.20;99.90
2955;DHT22;1487;51.470;6.938;2022-12-13T11:47:45;3.20;99.90
2955;DHT22;1487;51.470;6.938;2022-12-13T11:50:15;3.30;99.90
2955;DHT22;1487;51.470;6.938;2022-12-13T11:52:48;3.80;99.90
2955;DHT22;1487;51.470;6.938;2022-12-13T11:55:20;4.30;99.90
2955;DHT22;1487;51.470;6.938;2022-12-13T11:57:53;4.90;99.90
2955;DHT22;1487;51.470;6.938;2022-12-13T12:00:32;5.50;99.90
2955;DHT22;1487;51.470;6.938;2022-12-13T12:03:14;5.90;99.90
2955;DHT22;1487;51.470;6.938;2022-12-13T12:05:45;6.10;99.90
2955;DHT22;1487;51.470;6.938;2022-12-13T12:08:20;6.30;99.90
2955;DHT22;1487;51.470;6.938;2022-12-13T12:10:59;6.10;99.90
2955;DHT22;1487;51.470;6.938;2022-12-13T12:13:29;6.30;99.90
2955;DHT22;1487;51.470;6.938;2022-12-13T12:16:04;6.30;99.90
2955;DHT22;1487;51.470;6.938;2022-12-13T12:18:32;6.30;99.90
2955;DHT22;1487;51.470;6.938;2022-12-13T12:21:19;6.10;99.90
2955;DHT22;1487;51.470;6.938;2022-12-13T12:23:59;5.90;98.90
2955;DHT22;1487;51.470;6.938;2022-12-13T12:26:34;5.70;96.80
2955;DHT22;1487;51.470;6.938;2022-12-13T12:29:26;5.50;99.90
2955;DHT22;1487;51.470;6.938;2022-12-13T12:32:04;5.10;99.90
2955;DHT22;1487;51.470;6.938;2022-12-13T12:34:37;4.80;99.90
2955;DHT22;1487;51.470;6.938;2022-12-13T12:37:16;4.70;99.90
2955;DHT22;1487;51.470;6.938;2022-12-13T12:40:15;4.60;99.90
2955;DHT22;1487;51.470;6.938;2022-12-13T12:42:54;4.40;99.90
2955;DHT22;1487;51.470;6.938;2022-12-13T12:45:32;4.20;99.90
2955;DHT22;1487;51.470;6.938;2022-12-13T12:48:13;4.10;99.90
2955;DHT22;1487;51.470;6.938;2022-12-13T12:50:46;3.90;97.20
2955;DHT22;1487;51.470;6.938;2022-12-13T12:53:33;3.60;98.20
2955;DHT22;1487;51.470;6.938;2022-12-13T12:56:16;3.50;99.90
2955;DHT22;1487;51.470;6.938;2022-12-13T12:58:49;3.30;99.90
2955;DHT22;1487;51.470;6.938;2022-12-13T13:01:31;3.20;99.90
2955;DHT22;1487;51.470;6.938;2022-12-13T13:04:03;3.20;99.90
2955;DHT22;1487;51.470;6.938;2022-12-13T13:06:34;3.30;99.90
2955;DHT22;1487;51.470;6.938;2022-12-13T13:09:04;3.30;99.90
2955;DHT22;1487;51.470;6.938;2022-12-13T13:11:35;3.40;99.90
2955;DHT22;1487;51.470;6.938;2022-12-13T13:14:07;3.50;99.90
2955;DHT22;1487;51.470;6.938;2022-12-13T13:16:52;3.50;99.90
2955;DHT22;1487;51.470;6.938;2022-12-13T13:19:44;3.60;99.90
2955;DHT22;1487;51.470;6.938;2022-12-13T13:22:27;3.60;99.90
2955;DHT22;1487;51.470;6.938;2022-12-13T13:25:23;3.70;99.90
2955;DHT22;1487;51.470;6.938;2022-12-13T13:28:00;3.70;99.90
2955;DHT22;1487;51.470;6.938;2022-12-13T13:30:28;3.70;99.90
2955;DHT22;1487;51.470;6.938;2022-12-13T13:32:56;3.70;99.90
2955;DHT22;1487;51.470;6.938;2022-12-13T13:35:50;3.90;99.90
2955;DHT22;1487;51.470;6.938;2022-12-13T13:41:38;4.10;99.90
2955;DHT22;1487;51.470;6.938;2022-12-13T13:47:13;3.90;99.90
2955;DHT22;1487;51.470;6.938;2022-12-13T13:49:53;3.60;99.90
2955;DHT22;1487;51.470;6.938;2022-12-13T13:52:22;3.40;99.90
2955;DHT22;1487;51.470;6.938;2022-12-13T13:55:26;3.30;99.90
2955;DHT22;1487;51.470;6.938;2022-12-13T14:01:26;3.10;99.90
2955;DHT22;1487;51.470;6.938;2022-12-13T14:04:29;2.90;99.90
2955;DHT22;1487;51.470;6.938;2022-12-13T14:10:20;2.60;99.90
2955;DHT22;1487;51.470;6.938;2022-12-13T14:13:16;2.30;99.90
2955;DHT22;1487;51.470;6.938;2022-12-13T14:16:07;2.20;99.90
2955;DHT22;1487;51.470;6.938;2022-12-13T14:19:10;2.10;99.90
2955;DHT22;1487;51.470;6.938;2022-12-13T14:21:52;2.00;99.90
2955;DHT22;1487;51.470;6.938;2022-12-13T14:24:26;1.90;99.90
2955;DHT22;1487;51.470;6.938;2022-12-13T14:27:11;1.70;99.90
2955;DHT22;1487;51.470;6.938;2022-12-13T14:29:43;1.50;99.90
2955;DHT22;1487;51.470;6.938;2022-12-13T14:32:18;1.30;99.90
2955;DHT22;1487;51.470;6.938;2022-12-13T14:34:47;1.20;99.90
2955;DHT22;1487;51.470;6.938;2022-12-13T14:37:25;1.10;99.90
2955;DHT22;1487;51.470;6.938;2022-12-13T14:39:53;1.00;99.90
2955;DHT22;1487;51.470;6.938;2022-12-13T14:42:23;1.00;99.90
2955;DHT22;1487;51.470;6.938;2022-12-13T14:44:50;0.90;99.90
2955;DHT22;1487;51.470;6.938;2022-12-13T14:47:18;0.80;99.90
2955;DHT22;1487;51.470;6.938;2022-12-13T14:49:52;0.80;99.90
2955;DHT22;1487;51.470;6.938;2022-12-13T14:52:21;0.70;99.90
2955;DHT22;1487;51.470;6.938;2022-12-13T14:54:52;0.60;99.90
2955;DHT22;1487;51.470;6.938;2022-12-13T14:57:21;0.50;99.90
2955;DHT22;1487;51.470;6.938;2022-12-13T14:59:50;0.40;99.90
2955;DHT22;1487;51.470;6.938;2022-12-13T15:02:19;0.30;99.90
2955;DHT22;1487;51.470;6.938;2022-12-13T15:04:51;0.30;99.90
2955;DHT22;1487;51.470;6.938;2022-12-13T15:07:24;0.20;99.90
2955;DHT22;1487;51.470;6.938;2022-12-13T15:09:54;0.20;99.90
2955;DHT22;1487;51.470;6.938;2022-12-13T15:12:22;0.10;99.90
2955;DHT22;1487;51.470;6.938;2022-12-13T15:14:54;0.10;99.90
2955;DHT22;1487;51.470;6.938;2022-12-13T15:17:28;0.00;99.90
2955;DHT22;1487;51.470;6.938;2022-12-13T15:19:57;-0.10;99.90
2955;DHT22;1487;51.470;6.938;2022-12-13T15:22:25;-0.10;99.90
2955;DHT22;1487;51.470;6.938;2022-12-13T15:24:53;-0.30;99.90
2955;DHT22;1487;51.470;6.938;2022-12-13T15:27:21;-0.30;99.90
2955;DHT22;1487;51.470;6.938;2022-12-13T15:29:50;-0.40;99.90
2955;DHT22;1487;51.470;6.938;2022-12-13T15:32:19;-0.40;99.90
2955;DHT22;1487;51.470;6.938;2022-12-13T15:34:47;-0.50;99.90
2955;DHT22;1487;51.470;6.938;2022-12-13T15:37:21;-0.50;99.90
2955;DHT22;1487;51.470;6.938;2022-12-13T15:39:51;-0.50;99.90
2955;DHT22;1487;51.470;6.938;2022-12-13T15:42:20;-0.60;99.90
2955;DHT22;1487;51.470;6.938;2022-12-13T15:44:50;-0.60;99.90
2955;DHT22;1487;51.470;6.938;2022-12-13T15:47:20;-0.70;99.90
2955;DHT22;1487;51.470;6.938;2022-12-13T15:49:52;-0.80;99.90
2955;DHT22;1487;51.470;6.938;2022-12-13T15:52:27;-0.80;99.90
2955;DHT22;1487;51.470;6.938;2022-12-13T15:54:55;-0.80;99.90
2955;DHT22;1487;51.470;6.938;2022-12-13T15:57:24;-0.80;99.90
2955;DHT22;1487;51.470;6.938;2022-12-13T16:00:19;-0.80;99.90
2955;DHT22;1487;51.470;6.938;2022-12-13T16:02:50;-0.80;99.90
2955;DHT22;1487;51.470;6.938;2022-12-13T16:05:24;-0.70;99.90
2955;DHT22;1487;51.470;6.938;2022-12-13T16:07:54;-0.80;99.90
2955;DHT22;1487;51.470;6.938;2022-12-13T16:10:21;-0.80;99.90
2955;DHT22;1487;51.470;6.938;2022-12-13T16:12:52;-0.90;99.90
2955;DHT22;1487;51.470;6.938;2022-12-13T16:15:20;-0.90;99.90
2955;DHT22;1487;51.470;6.938;2022-12-13T16:17:49;-0.80;99.90
2955;DHT22;1487;51.470;6.938;2022-12-13T16:20:18;-0.90;99.90
2955;DHT22;1487;51.470;6.938;2022-12-13T16:22:45;-0.90;99.90
2955;DHT22;1487;51.470;6.938;2022-12-13T16:25:16;-0.90;99.90
2955;DHT22;1487;51.470;6.938;2022-12-13T16:27:43;-1.00;99.90
2955;DHT22;1487;51.470;6.938;2022-12-13T16:30:13;-1.00;99.90
2955;DHT22;1487;51.470;6.938;2022-12-13T16:32:40;-1.00;99.90
2955;DHT22;1487;51.470;6.938;2022-12-13T16:35:07;-1.00;99.90
2955;DHT22;1487;51.470;6.938;2022-12-13T16:37:34;-1.10;99.90
2955;DHT22;1487;51.470;6.938;2022-12-13T16:40:25;-1.10;99.90
2955;DHT22;1487;51.470;6.938;2022-12-13T16:42:59;-1.10;99.90
2955;DHT22;1487;51.470;6.938;2022-12-13T16:45:29;-1.10;99.90